QTR294 LEMD-EDDF
Flight info
| Callsign | QTR294 |
|---|---|
| Flight time | N/A |
| Altitude | 40000 |
| Route | PINAR N870 SEGRE N871 TOPTU DCT TOU DCT GAI DCT MEN DCT NINUN DCT LATAM DCT ETREK DCT LTP DCT SOPLO DCT OMASI DCT KINNI DCT SOSAL DCT KORED DCT BERSU DCT DITON/N0490F410 DCT LADOL/N0490F400 T163 EMPAX EMPAX5B |
| Aircraft | A35K/H-SDE2E3GHIJ3J4J5LM1ORWXY/LB1D1 |
Departure
| Time | 2026-05-06 20:32 |
|---|---|
| Airport | Adolfo Suárez Madrid–Barajas Airport (LEMD) |
Arrival
| Time | N/A |
|---|---|
| Airport | Frankfurt Main Airport (EDDF) |
| Time | Latitude | Longitude | Altitude | Speed | Heading |
|---|---|---|---|---|---|
| 2026-05-06 19:55 | 40.49409 | -3.56892 | 1978 ft | 0 kts | 90° |
| 2026-05-06 20:22 | 40.49408 | -3.56918 | 1981 ft | 4 kts | 89° |
| 2026-05-06 20:23 | 40.49408 | -3.56954 | 1980 ft | 4 kts | 89° |
| 2026-05-06 20:23 | 40.49409 | -3.56983 | 1981 ft | 4 kts | 121° |
| 2026-05-06 20:23 | 40.49428 | -3.57001 | 1982 ft | 4 kts | 172° |
| 2026-05-06 20:23 | 40.49452 | -3.57003 | 1982 ft | 2 kts | 180° |
| 2026-05-06 20:24 | 40.49458 | -3.57003 | 1980 ft | 0 kts | 179° |
| 2026-05-06 20:25 | 40.49454 | -3.57003 | 1984 ft | 2 kts | 179° |
| 2026-05-06 20:26 | 40.49427 | -3.57002 | 1984 ft | 6 kts | 178° |
| 2026-05-06 20:26 | 40.49374 | -3.56999 | 1983 ft | 9 kts | 179° |
| 2026-05-06 20:26 | 40.49345 | -3.57000 | 1984 ft | 1 kts | 182° |
| 2026-05-06 20:26 | 40.49330 | -3.57001 | 1982 ft | 3 kts | 184° |
| 2026-05-06 20:27 | 40.49311 | -3.57010 | 1987 ft | 3 kts | 208° |
| 2026-05-06 20:27 | 40.49299 | -3.57028 | 1987 ft | 8 kts | 236° |
| 2026-05-06 20:27 | 40.49287 | -3.57159 | 1986 ft | 16 kts | 262° |
| 2026-05-06 20:27 | 40.49219 | -3.57237 | 1990 ft | 10 kts | 209° |
| 2026-05-06 20:28 | 40.49195 | -3.57277 | 1991 ft | 0 kts | 243° |
| 2026-05-06 20:28 | 40.49194 | -3.57279 | 1991 ft | 0 kts | 243° |
| 2026-05-06 20:28 | 40.49194 | -3.57280 | 1991 ft | 1 kts | 243° |
| 2026-05-06 20:29 | 40.49192 | -3.57286 | 1993 ft | 2 kts | 246° |
| 2026-05-06 20:29 | 40.49184 | -3.57345 | 1993 ft | 12 kts | 265° |
| 2026-05-06 20:29 | 40.49214 | -3.57435 | 1993 ft | 11 kts | 327° |
| 2026-05-06 20:29 | 40.49299 | -3.57452 | 1990 ft | 13 kts | 359° |
| 2026-05-06 20:30 | 40.49346 | -3.57452 | 1989 ft | 1 kts | 0° |
| 2026-05-06 20:30 | 40.49405 | -3.57451 | 1991 ft | 7 kts | 0° |
| 2026-05-06 20:30 | 40.49466 | -3.57451 | 1993 ft | 10 kts | 0° |
| 2026-05-06 20:31 | 40.49546 | -3.57451 | 1993 ft | 18 kts | 0° |
| 2026-05-06 20:31 | 40.49922 | -3.57455 | 1995 ft | 91 kts | 360° |
| 2026-05-06 20:31 | 40.50774 | -3.57462 | 2001 ft | 152 kts | 359° |
| 2026-05-06 20:31 | 40.51982 | -3.57494 | 2274 ft | 184 kts | 359° |
| 2026-05-06 20:32 | 40.53611 | -3.57475 | 3491 ft | 168 kts | 3° |
| 2026-05-06 20:32 | 40.54410 | -3.57425 | 3934 ft | 176 kts | 4° |
| 2026-05-06 20:32 | 40.55723 | -3.57206 | 4198 ft | 204 kts | 13° |
| 2026-05-06 20:32 | 40.57162 | -3.56692 | 4602 ft | 226 kts | 18° |
| 2026-05-06 20:33 | 40.58685 | -3.56106 | 5309 ft | 234 kts | 17° |
| 2026-05-06 20:33 | 40.60267 | -3.55511 | 6172 ft | 239 kts | 17° |
| 2026-05-06 20:33 | 40.61887 | -3.54911 | 7038 ft | 244 kts | 16° |
| 2026-05-06 20:33 | 40.63541 | -3.54357 | 7943 ft | 248 kts | 11° |
| 2026-05-06 20:34 | 40.65273 | -3.54091 | 8897 ft | 251 kts | 5° |
| 2026-05-06 20:34 | 40.67031 | -3.53933 | 9878 ft | 255 kts | 4° |
| 2026-05-06 20:34 | 40.68817 | -3.53730 | 10716 ft | 260 kts | 9° |
| 2026-05-06 20:34 | 40.70510 | -3.52862 | 11557 ft | 266 kts | 36° |
| 2026-05-06 20:35 | 40.71837 | -3.51058 | 12057 ft | 286 kts | 55° |
| 2026-05-06 20:35 | 40.73007 | -3.48794 | 12460 ft | 311 kts | 58° |
| 2026-05-06 20:35 | 40.74241 | -3.46323 | 12905 ft | 334 kts | 57° |
| 2026-05-06 20:35 | 40.75574 | -3.43693 | 13351 ft | 356 kts | 57° |
| 2026-05-06 20:36 | 40.76984 | -3.40941 | 13808 ft | 374 kts | 56° |
| 2026-05-06 20:36 | 40.78472 | -3.38056 | 14439 ft | 385 kts | 56° |
| 2026-05-06 20:36 | 40.79998 | -3.35104 | 15165 ft | 393 kts | 56° |
| 2026-05-06 20:36 | 40.81556 | -3.32091 | 15903 ft | 400 kts | 56° |
| 2026-05-06 20:37 | 40.83135 | -3.29034 | 16679 ft | 407 kts | 56° |
| 2026-05-06 20:37 | 40.84702 | -3.25890 | 17459 ft | 413 kts | 59° |
| 2026-05-06 20:37 | 40.85849 | -3.22387 | 18225 ft | 419 kts | 73° |
| 2026-05-06 20:37 | 40.86630 | -3.18650 | 18969 ft | 424 kts | 76° |
| 2026-05-06 20:38 | 40.87364 | -3.14851 | 19791 ft | 428 kts | 76° |
| 2026-05-06 20:38 | 40.88106 | -3.11015 | 20570 ft | 433 kts | 76° |
| 2026-05-06 20:38 | 40.88862 | -3.07135 | 21317 ft | 439 kts | 76° |
| 2026-05-06 20:38 | 40.89629 | -3.03213 | 22051 ft | 444 kts | 76° |
| 2026-05-06 20:39 | 40.90408 | -2.99229 | 22780 ft | 450 kts | 76° |
| 2026-05-06 20:39 | 40.91197 | -2.95195 | 23531 ft | 455 kts | 76° |
| 2026-05-06 20:39 | 40.91991 | -2.91125 | 24169 ft | 460 kts | 76° |
| 2026-05-06 20:39 | 40.92794 | -2.87007 | 24818 ft | 465 kts | 76° |
| 2026-05-06 20:40 | 40.93603 | -2.82847 | 25476 ft | 469 kts | 76° |
| 2026-05-06 20:40 | 40.94420 | -2.78637 | 26116 ft | 473 kts | 76° |
| 2026-05-06 20:40 | 40.95231 | -2.74453 | 26746 ft | 477 kts | 76° |
| 2026-05-06 20:40 | 40.96067 | -2.70129 | 27402 ft | 482 kts | 76° |
| 2026-05-06 20:41 | 40.96884 | -2.65897 | 28006 ft | 486 kts | 76° |
| 2026-05-06 20:41 | 40.97722 | -2.61542 | 28652 ft | 490 kts | 76° |
| 2026-05-06 20:41 | 40.98568 | -2.57150 | 29244 ft | 494 kts | 76° |
| 2026-05-06 20:41 | 40.99418 | -2.52722 | 29837 ft | 498 kts | 76° |
| 2026-05-06 20:42 | 41.00270 | -2.48261 | 30319 ft | 502 kts | 76° |
| 2026-05-06 20:42 | 41.01304 | -2.43827 | 30750 ft | 507 kts | 69° |
| 2026-05-06 20:42 | 41.02809 | -2.39593 | 31181 ft | 510 kts | 59° |
| 2026-05-06 20:42 | 41.04824 | -2.35717 | 31602 ft | 512 kts | 49° |
| 2026-05-06 20:43 | 41.07319 | -2.32338 | 31998 ft | 514 kts | 40° |
| 2026-05-06 20:43 | 41.10039 | -2.29252 | 32468 ft | 514 kts | 38° |
| 2026-05-06 20:43 | 41.12821 | -2.26268 | 32982 ft | 516 kts | 37° |
| 2026-05-06 20:43 | 41.15645 | -2.23309 | 33458 ft | 516 kts | 36° |
| 2026-05-06 20:44 | 41.18431 | -2.20404 | 34020 ft | 515 kts | 36° |
| 2026-05-06 20:44 | 41.21246 | -2.17455 | 34464 ft | 515 kts | 36° |
| 2026-05-06 20:44 | 41.24090 | -2.14455 | 34892 ft | 515 kts | 37° |
| 2026-05-06 20:44 | 41.26893 | -2.11480 | 35270 ft | 516 kts | 37° |
| 2026-05-06 20:45 | 41.29693 | -2.08493 | 35663 ft | 516 kts | 37° |
| 2026-05-06 20:45 | 41.32460 | -2.05533 | 36000 ft | 517 kts | 37° |
| 2026-05-06 20:45 | 41.35257 | -2.02533 | 36467 ft | 516 kts | 37° |
| 2026-05-06 20:45 | 41.38047 | -1.99537 | 36904 ft | 514 kts | 37° |
| 2026-05-06 20:46 | 41.40835 | -1.96540 | 37241 ft | 515 kts | 37° |
| 2026-05-06 20:46 | 41.43626 | -1.93538 | 37558 ft | 516 kts | 37° |
| 2026-05-06 20:46 | 41.46420 | -1.90530 | 37898 ft | 517 kts | 37° |
| 2026-05-06 20:46 | 41.49219 | -1.87513 | 38167 ft | 518 kts | 37° |
| 2026-05-06 20:47 | 41.52026 | -1.84486 | 38453 ft | 519 kts | 37° |
| 2026-05-06 20:47 | 41.54839 | -1.81448 | 38757 ft | 519 kts | 37° |
| 2026-05-06 20:47 | 41.57644 | -1.78413 | 39036 ft | 518 kts | 37° |
| 2026-05-06 20:47 | 41.60444 | -1.75381 | 39319 ft | 518 kts | 37° |
| 2026-05-06 20:48 | 41.63241 | -1.72349 | 39562 ft | 518 kts | 37° |
| 2026-05-06 20:48 | 41.66039 | -1.69313 | 39778 ft | 518 kts | 37° |
| 2026-05-06 20:48 | 41.68845 | -1.66265 | 39962 ft | 519 kts | 37° |
| 2026-05-06 20:49 | 41.74410 | -1.60209 | 39994 ft | 519 kts | 37° |
| 2026-05-06 20:49 | 41.80013 | -1.54096 | 39999 ft | 518 kts | 37° |
| 2026-05-06 20:50 | 41.85607 | -1.47980 | 39988 ft | 518 kts | 37° |
| 2026-05-06 20:50 | 41.91200 | -1.41850 | 39988 ft | 519 kts | 37° |
| 2026-05-06 20:51 | 41.96788 | -1.35712 | 39983 ft | 519 kts | 37° |
| 2026-05-06 20:51 | 42.02335 | -1.29603 | 39983 ft | 518 kts | 37° |
| 2026-05-06 20:52 | 42.07902 | -1.23459 | 39982 ft | 518 kts | 37° |
| 2026-05-06 20:52 | 42.10450 | -1.20643 | 39980 ft | 518 kts | 37° |
| 2026-05-06 20:53 | 42.16021 | -1.14482 | 39978 ft | 518 kts | 37° |
| 2026-05-06 20:53 | 42.21583 | -1.08305 | 39996 ft | 518 kts | 37° |
| 2026-05-06 20:54 | 42.27153 | -1.02105 | 39985 ft | 517 kts | 37° |
| 2026-05-06 20:54 | 42.32698 | -0.95921 | 39989 ft | 518 kts | 37° |
| 2026-05-06 20:55 | 42.38252 | -0.89714 | 39986 ft | 517 kts | 37° |
| 2026-05-06 20:55 | 42.43544 | -0.83114 | 39987 ft | 519 kts | 49° |
| 2026-05-06 20:56 | 42.48097 | -0.75504 | 39986 ft | 520 kts | 50° |
| 2026-05-06 20:56 | 42.52509 | -0.67725 | 39989 ft | 521 kts | 51° |
| 2026-05-06 20:57 | 42.56875 | -0.59956 | 39997 ft | 521 kts | 51° |
| 2026-05-06 20:57 | 42.61276 | -0.52139 | 40002 ft | 521 kts | 51° |
| 2026-05-06 20:58 | 42.65678 | -0.44326 | 40007 ft | 520 kts | 51° |
| 2026-05-06 20:58 | 42.69814 | -0.36972 | 40012 ft | 520 kts | 51° |
| 2026-05-06 20:59 | 42.74204 | -0.29145 | 40017 ft | 520 kts | 51° |
| 2026-05-06 20:59 | 42.78589 | -0.21306 | 40028 ft | 520 kts | 51° |
| 2026-05-06 21:00 | 42.83016 | -0.13578 | 40019 ft | 520 kts | 49° |
| 2026-05-06 21:00 | 42.87634 | -0.05986 | 40032 ft | 523 kts | 48° |
| 2026-05-06 21:01 | 42.92331 | 0.01726 | 40029 ft | 532 kts | 49° |
| 2026-05-06 21:01 | 42.97040 | 0.09552 | 40026 ft | 535 kts | 49° |
| 2026-05-06 21:02 | 43.01754 | 0.17453 | 40030 ft | 535 kts | 49° |
| 2026-05-06 21:02 | 43.06446 | 0.25345 | 40024 ft | 534 kts | 49° |
| 2026-05-06 21:03 | 43.11093 | 0.33180 | 40025 ft | 534 kts | 50° |
| 2026-05-06 21:03 | 43.15768 | 0.41080 | 40037 ft | 534 kts | 49° |
| 2026-05-06 21:04 | 43.20422 | 0.48965 | 39903 ft | 529 kts | 49° |
| 2026-05-06 21:04 | 43.22728 | 0.52881 | 39228 ft | 529 kts | 49° |
| 2026-05-06 21:04 | 43.25040 | 0.56811 | 38550 ft | 529 kts | 50° |
| 2026-05-06 21:04 | 43.27359 | 0.60758 | 38095 ft | 532 kts | 50° |
| 2026-05-06 21:05 | 43.29605 | 0.64584 | 38030 ft | 534 kts | 50° |
| 2026-05-06 21:05 | 43.34273 | 0.72556 | 38021 ft | 535 kts | 50° |
| 2026-05-06 21:06 | 43.38930 | 0.80533 | 38018 ft | 535 kts | 50° |
| 2026-05-06 21:06 | 43.43581 | 0.88518 | 38026 ft | 535 kts | 50° |
| 2026-05-06 21:07 | 43.46436 | 0.93432 | 38023 ft | 534 kts | 50° |
| 2026-05-06 21:07 | 43.50687 | 1.00764 | 38000 ft | 534 kts | 50° |
| 2026-05-06 21:08 | 43.55316 | 1.08768 | 37999 ft | 534 kts | 50° |
| 2026-05-06 21:08 | 43.59910 | 1.16734 | 38029 ft | 534 kts | 50° |
| 2026-05-06 21:09 | 43.64538 | 1.24780 | 38022 ft | 535 kts | 50° |
| 2026-05-06 21:09 | 43.69161 | 1.32846 | 38020 ft | 535 kts | 50° |
| 2026-05-06 21:10 | 43.73630 | 1.41106 | 38020 ft | 536 kts | 52° |
| 2026-05-06 21:10 | 43.78012 | 1.49461 | 38014 ft | 536 kts | 52° |
| 2026-05-06 21:11 | 43.82404 | 1.57799 | 38023 ft | 537 kts | 52° |
| 2026-05-06 21:11 | 43.86801 | 1.66105 | 38001 ft | 537 kts | 52° |
| 2026-05-06 21:12 | 43.91217 | 1.74454 | 37999 ft | 537 kts | 52° |
| 2026-05-06 21:12 | 43.95632 | 1.82823 | 37999 ft | 537 kts | 52° |
| 2026-05-06 21:13 | 43.99948 | 1.91289 | 38000 ft | 537 kts | 54° |
| 2026-05-06 21:13 | 44.04165 | 1.99862 | 38006 ft | 537 kts | 54° |
| 2026-05-06 21:14 | 44.08379 | 2.08428 | 38002 ft | 537 kts | 54° |
| 2026-05-06 21:14 | 44.12611 | 2.16997 | 38007 ft | 536 kts | 54° |
| 2026-05-06 21:15 | 44.16128 | 2.24118 | 38000 ft | 536 kts | 54° |
| 2026-05-06 21:15 | 44.21038 | 2.34085 | 38011 ft | 537 kts | 54° |
| 2026-05-06 21:16 | 44.24573 | 2.41285 | 38000 ft | 537 kts | 54° |
| 2026-05-06 21:16 | 44.28757 | 2.49832 | 37996 ft | 536 kts | 54° |
| 2026-05-06 21:17 | 44.32961 | 2.58446 | 37996 ft | 536 kts | 54° |
| 2026-05-06 21:17 | 44.37160 | 2.67074 | 37995 ft | 536 kts | 54° |
| 2026-05-06 21:18 | 44.41354 | 2.75718 | 38000 ft | 537 kts | 55° |
| 2026-05-06 21:18 | 44.45537 | 2.84364 | 37993 ft | 536 kts | 55° |
| 2026-05-06 21:19 | 44.49720 | 2.93040 | 38006 ft | 536 kts | 55° |
| 2026-05-06 21:19 | 44.53861 | 3.01651 | 37998 ft | 536 kts | 55° |
| 2026-05-06 21:20 | 44.58022 | 3.10330 | 38001 ft | 537 kts | 55° |
| 2026-05-06 21:20 | 44.62173 | 3.19071 | 37995 ft | 536 kts | 57° |
| 2026-05-06 21:21 | 44.65879 | 3.28157 | 37996 ft | 536 kts | 61° |
| 2026-05-06 21:21 | 44.69397 | 3.37334 | 37995 ft | 536 kts | 61° |
| 2026-05-06 21:22 | 44.72985 | 3.46528 | 37994 ft | 536 kts | 60° |
| 2026-05-06 21:22 | 44.76626 | 3.55716 | 37993 ft | 536 kts | 60° |
| 2026-05-06 21:23 | 44.80273 | 3.64883 | 37990 ft | 536 kts | 60° |
| 2026-05-06 21:23 | 44.83886 | 3.74019 | 37991 ft | 536 kts | 60° |
| 2026-05-06 21:24 | 44.87513 | 3.83228 | 37983 ft | 537 kts | 60° |
| 2026-05-06 21:24 | 44.91138 | 3.92461 | 37998 ft | 538 kts | 60° |
| 2026-05-06 21:25 | 44.94761 | 4.01718 | 37983 ft | 538 kts | 60° |
| 2026-05-06 21:25 | 44.98367 | 4.10961 | 37983 ft | 537 kts | 60° |
| 2026-05-06 21:26 | 45.01967 | 4.20221 | 37979 ft | 537 kts | 60° |
| 2026-05-06 21:26 | 45.05536 | 4.29421 | 37980 ft | 537 kts | 61° |
| 2026-05-06 21:27 | 45.09119 | 4.38700 | 37978 ft | 537 kts | 61° |
| 2026-05-06 21:27 | 45.12691 | 4.47989 | 37975 ft | 536 kts | 61° |
| 2026-05-06 21:28 | 45.16251 | 4.57273 | 37976 ft | 536 kts | 61° |
| 2026-05-06 21:28 | 45.19809 | 4.66573 | 37971 ft | 536 kts | 61° |
| 2026-05-06 21:29 | 45.23361 | 4.75887 | 37970 ft | 537 kts | 62° |
| 2026-05-06 21:29 | 45.26904 | 4.85227 | 37969 ft | 537 kts | 62° |
| 2026-05-06 21:30 | 45.30438 | 4.94571 | 37976 ft | 536 kts | 62° |
| 2026-05-06 21:30 | 45.33937 | 5.03849 | 37972 ft | 535 kts | 62° |
| 2026-05-06 21:31 | 45.37450 | 5.13194 | 37990 ft | 536 kts | 62° |
| 2026-05-06 21:31 | 45.40964 | 5.22575 | 37993 ft | 537 kts | 62° |
| 2026-05-06 21:32 | 45.44466 | 5.31956 | 37994 ft | 537 kts | 62° |
| 2026-05-06 21:32 | 45.50406 | 5.45429 | 37979 ft | 535 kts | 46° |
| 2026-05-06 21:33 | 45.55787 | 5.52782 | 37982 ft | 536 kts | 41° |
| 2026-05-06 21:33 | 45.61359 | 5.59887 | 37973 ft | 537 kts | 40° |
| 2026-05-06 21:34 | 45.66945 | 5.66968 | 37965 ft | 536 kts | 40° |
| 2026-05-06 21:34 | 45.72469 | 5.74032 | 37968 ft | 536 kts | 41° |
| 2026-05-06 21:35 | 45.78023 | 5.81163 | 37976 ft | 536 kts | 41° |
| 2026-05-06 21:35 | 45.83587 | 5.88325 | 37988 ft | 536 kts | 41° |
| 2026-05-06 21:36 | 45.89131 | 5.95482 | 37991 ft | 536 kts | 41° |
| 2026-05-06 21:36 | 45.94680 | 6.02664 | 37992 ft | 537 kts | 41° |
| 2026-05-06 21:37 | 46.00220 | 6.09856 | 37991 ft | 534 kts | 41° |
| 2026-05-06 21:37 | 46.05735 | 6.17035 | 37989 ft | 535 kts | 41° |
| 2026-05-06 21:38 | 46.11209 | 6.24234 | 37985 ft | 536 kts | 43° |
| 2026-05-06 21:38 | 46.16523 | 6.31774 | 37984 ft | 536 kts | 44° |
| 2026-05-06 21:39 | 46.21784 | 6.39403 | 37963 ft | 536 kts | 44° |
| 2026-05-06 21:39 | 46.27075 | 6.47023 | 37970 ft | 537 kts | 44° |
| 2026-05-06 21:40 | 46.32343 | 6.54574 | 37957 ft | 537 kts | 44° |
| 2026-05-06 21:40 | 46.37649 | 6.62187 | 37954 ft | 537 kts | 44° |
| 2026-05-06 21:41 | 46.42961 | 6.69832 | 37949 ft | 536 kts | 44° |
| 2026-05-06 21:41 | 46.48245 | 6.77463 | 37948 ft | 536 kts | 44° |
| 2026-05-06 21:42 | 46.53528 | 6.85115 | 37950 ft | 536 kts | 44° |
| 2026-05-06 21:42 | 46.58445 | 6.93176 | 37954 ft | 537 kts | 50° |
| 2026-05-06 21:43 | 46.63169 | 7.01603 | 37956 ft | 537 kts | 51° |
| 2026-05-06 21:43 | 46.67856 | 7.10090 | 37956 ft | 537 kts | 51° |
| 2026-05-06 21:44 | 46.72526 | 7.18570 | 37957 ft | 537 kts | 51° |
| 2026-05-06 21:44 | 46.77203 | 7.27071 | 37958 ft | 536 kts | 51° |
| 2026-05-06 21:45 | 46.81863 | 7.35559 | 37950 ft | 536 kts | 51° |
| 2026-05-06 21:45 | 46.86537 | 7.44095 | 37966 ft | 537 kts | 51° |
| 2026-05-06 21:46 | 46.91191 | 7.52636 | 37951 ft | 538 kts | 52° |
| 2026-05-06 21:46 | 46.95838 | 7.61210 | 37951 ft | 537 kts | 52° |
| 2026-05-06 21:47 | 46.98589 | 7.66073 | 37937 ft | 537 kts | 51° |
| 2026-05-06 21:47 | 47.03180 | 7.74597 | 37956 ft | 536 kts | 52° |
| 2026-05-06 21:48 | 47.07755 | 7.83235 | 37959 ft | 536 kts | 52° |
| 2026-05-06 21:48 | 47.12339 | 7.91849 | 37962 ft | 535 kts | 52° |
| 2026-05-06 21:49 | 47.16471 | 8.00917 | 37952 ft | 534 kts | 58° |
| 2026-05-06 21:49 | 47.20432 | 8.10148 | 37949 ft | 533 kts | 59° |
| 2026-05-06 21:50 | 47.24358 | 8.19418 | 37949 ft | 533 kts | 59° |
| 2026-05-06 21:50 | 47.28471 | 8.28508 | 37945 ft | 534 kts | 50° |
| 2026-05-06 21:51 | 47.34013 | 8.35707 | 37941 ft | 532 kts | 31° |
| 2026-05-06 21:51 | 47.40553 | 8.40767 | 37941 ft | 532 kts | 25° |
| 2026-05-06 21:52 | 47.47207 | 8.45434 | 37966 ft | 532 kts | 24° |
| 2026-05-06 21:52 | 47.53910 | 8.50111 | 37966 ft | 532 kts | 25° |
| 2026-05-06 21:53 | 47.60598 | 8.54844 | 37960 ft | 532 kts | 25° |
| 2026-05-06 21:53 | 47.67263 | 8.59602 | 37953 ft | 532 kts | 25° |
| 2026-05-06 21:54 | 47.73928 | 8.64379 | 37945 ft | 532 kts | 25° |
| 2026-05-06 21:54 | 47.80597 | 8.69172 | 37936 ft | 532 kts | 25° |
| 2026-05-06 21:55 | 47.87268 | 8.73977 | 37935 ft | 532 kts | 25° |
| 2026-05-06 21:55 | 47.93934 | 8.78793 | 37933 ft | 532 kts | 26° |
| 2026-05-06 21:56 | 48.00597 | 8.83621 | 37928 ft | 532 kts | 26° |
| 2026-05-06 21:56 | 48.07258 | 8.88461 | 37927 ft | 532 kts | 26° |
| 2026-05-06 21:57 | 48.13900 | 8.93214 | 37919 ft | 533 kts | 22° |
| 2026-05-06 21:57 | 48.21049 | 8.95896 | 37922 ft | 531 kts | 6° |
| 2026-05-06 21:58 | 48.28403 | 8.97096 | 37916 ft | 531 kts | 5° |
| 2026-05-06 21:58 | 48.35759 | 8.98221 | 37911 ft | 531 kts | 5° |
| 2026-05-06 21:59 | 48.43131 | 8.99346 | 37907 ft | 532 kts | 5° |
| 2026-05-06 21:59 | 48.50497 | 9.00471 | 37898 ft | 532 kts | 5° |
| 2026-05-06 22:00 | 48.57863 | 9.01597 | 37887 ft | 532 kts | 5° |
| 2026-05-06 22:00 | 48.65180 | 9.02767 | 37885 ft | 532 kts | 7° |
| 2026-05-06 22:01 | 48.72493 | 9.04571 | 37890 ft | 532 kts | 8° |
| 2026-05-06 22:01 | 48.79806 | 9.06380 | 37860 ft | 529 kts | 8° |
| 2026-05-06 22:02 | 48.82190 | 9.06960 | 37534 ft | 516 kts | 8° |
| 2026-05-06 22:02 | 48.85704 | 9.07811 | 36490 ft | 508 kts | 8° |
| 2026-05-06 22:02 | 48.89194 | 9.08649 | 35175 ft | 507 kts | 8° |
| 2026-05-06 22:02 | 48.92668 | 9.09238 | 33874 ft | 505 kts | 4° |
| 2026-05-06 22:03 | 48.96159 | 9.09676 | 32350 ft | 502 kts | 4° |
| 2026-05-06 22:03 | 48.99629 | 9.10120 | 30903 ft | 498 kts | 5° |
| 2026-05-06 22:03 | 49.03067 | 9.10578 | 29363 ft | 494 kts | 5° |
| 2026-05-06 22:03 | 49.06471 | 9.11046 | 27767 ft | 487 kts | 5° |
| 2026-05-06 22:04 | 49.09825 | 9.11516 | 26333 ft | 479 kts | 5° |
| 2026-05-06 22:04 | 49.13110 | 9.11980 | 25075 ft | 468 kts | 5° |
| 2026-05-06 22:04 | 49.16309 | 9.12436 | 23849 ft | 457 kts | 5° |
| 2026-05-06 22:04 | 49.19441 | 9.12883 | 22405 ft | 449 kts | 5° |
| 2026-05-06 22:05 | 49.22534 | 9.13327 | 20864 ft | 443 kts | 4° |
| 2026-05-06 22:05 | 49.25581 | 9.13764 | 19447 ft | 436 kts | 4° |
| 2026-05-06 22:05 | 49.28563 | 9.14301 | 18149 ft | 428 kts | 8° |
| 2026-05-06 22:05 | 49.31453 | 9.15218 | 16652 ft | 421 kts | 12° |
| 2026-05-06 22:06 | 49.34287 | 9.16224 | 15166 ft | 415 kts | 12° |
| 2026-05-06 22:06 | 49.37087 | 9.17225 | 14155 ft | 411 kts | 12° |
| 2026-05-06 22:06 | 49.39800 | 9.18193 | 13705 ft | 401 kts | 13° |
| 2026-05-06 22:06 | 49.42502 | 9.19158 | 13105 ft | 396 kts | 13° |
| 2026-05-06 22:07 | 49.45172 | 9.20111 | 12511 ft | 391 kts | 12° |
| 2026-05-06 22:07 | 49.47816 | 9.21053 | 11931 ft | 387 kts | 12° |
| 2026-05-06 22:07 | 49.50424 | 9.21982 | 11352 ft | 383 kts | 12° |
| 2026-05-06 22:07 | 49.53003 | 9.22902 | 10785 ft | 379 kts | 12° |
| 2026-05-06 22:08 | 49.55566 | 9.23821 | 10625 ft | 380 kts | 12° |
| 2026-05-06 22:08 | 49.58154 | 9.24743 | 10538 ft | 381 kts | 12° |
| 2026-05-06 22:08 | 49.60612 | 9.25622 | 10421 ft | 365 kts | 12° |
| 2026-05-06 22:08 | 49.63031 | 9.26489 | 10273 ft | 348 kts | 12° |
| 2026-05-06 22:09 | 49.65341 | 9.27318 | 10121 ft | 332 kts | 11° |
| 2026-05-06 22:09 | 49.67538 | 9.28107 | 10006 ft | 317 kts | 11° |
| 2026-05-06 22:09 | 49.69637 | 9.28861 | 9867 ft | 303 kts | 11° |
| 2026-05-06 22:09 | 49.71649 | 9.29585 | 9794 ft | 293 kts | 11° |
| 2026-05-06 22:10 | 49.73641 | 9.30304 | 9758 ft | 295 kts | 11° |
| 2026-05-06 22:10 | 49.75644 | 9.31022 | 9688 ft | 295 kts | 11° |
| 2026-05-06 22:10 | 49.77640 | 9.31742 | 9616 ft | 293 kts | 11° |
| 2026-05-06 22:10 | 49.79636 | 9.32460 | 9552 ft | 294 kts | 11° |
| 2026-05-06 22:11 | 49.81607 | 9.33161 | 9496 ft | 294 kts | 10° |
| 2026-05-06 22:11 | 49.83626 | 9.33431 | 9439 ft | 291 kts | 351° |
| 2026-05-06 22:11 | 49.85532 | 9.32523 | 9396 ft | 286 kts | 330° |
| 2026-05-06 22:11 | 49.87328 | 9.31193 | 9339 ft | 286 kts | 333° |
| 2026-05-06 22:12 | 49.89155 | 9.29944 | 9331 ft | 287 kts | 334° |
| 2026-05-06 22:12 | 49.90979 | 9.28712 | 9331 ft | 287 kts | 334° |
| 2026-05-06 22:12 | 49.92817 | 9.27475 | 9036 ft | 289 kts | 334° |
| 2026-05-06 22:12 | 49.94654 | 9.26241 | 8608 ft | 286 kts | 334° |
| 2026-05-06 22:13 | 49.96477 | 9.25017 | 8224 ft | 283 kts | 333° |
| 2026-05-06 22:13 | 49.98282 | 9.23811 | 7785 ft | 282 kts | 334° |
| 2026-05-06 22:13 | 50.00058 | 9.22631 | 7375 ft | 279 kts | 333° |
| 2026-05-06 22:13 | 50.01846 | 9.21450 | 6958 ft | 278 kts | 334° |
| 2026-05-06 22:14 | 50.03620 | 9.20283 | 6555 ft | 276 kts | 334° |
| 2026-05-06 22:14 | 50.05391 | 9.19118 | 6142 ft | 275 kts | 334° |
| 2026-05-06 22:14 | 50.07143 | 9.17958 | 5755 ft | 272 kts | 334° |
| 2026-05-06 22:14 | 50.08830 | 9.16665 | 5335 ft | 268 kts | 323° |
| 2026-05-06 22:15 | 50.10028 | 9.14554 | 5025 ft | 262 kts | 296° |
| 2026-05-06 22:15 | 50.10653 | 9.11876 | 4974 ft | 265 kts | 285° |
| 2026-05-06 22:15 | 50.11123 | 9.09129 | 4971 ft | 260 kts | 284° |
| 2026-05-06 22:15 | 50.11568 | 9.06403 | 4973 ft | 259 kts | 283° |
| 2026-05-06 22:16 | 50.12010 | 9.03682 | 4969 ft | 258 kts | 283° |
| 2026-05-06 22:16 | 50.12451 | 9.00968 | 4974 ft | 259 kts | 283° |
| 2026-05-06 22:16 | 50.12883 | 8.98279 | 4958 ft | 244 kts | 284° |
| 2026-05-06 22:16 | 50.13276 | 8.95832 | 4959 ft | 226 kts | 283° |
| 2026-05-06 22:17 | 50.13649 | 8.93544 | 4963 ft | 209 kts | 284° |
| 2026-05-06 22:17 | 50.13998 | 8.91405 | 4964 ft | 200 kts | 283° |
| 2026-05-06 22:17 | 50.14274 | 8.89282 | 4970 ft | 199 kts | 271° |
| 2026-05-06 22:17 | 50.13916 | 8.87258 | 4990 ft | 199 kts | 241° |
| 2026-05-06 22:18 | 50.13124 | 8.85484 | 4983 ft | 202 kts | 230° |
| 2026-05-06 22:18 | 50.12134 | 8.83911 | 4907 ft | 202 kts | 230° |
| 2026-05-06 22:18 | 50.11272 | 8.82248 | 4767 ft | 191 kts | 233° |
| 2026-05-06 22:18 | 50.10435 | 8.80735 | 4667 ft | 181 kts | 229° |
| 2026-05-06 22:19 | 50.09575 | 8.79298 | 4331 ft | 182 kts | 229° |
| 2026-05-06 22:19 | 50.08809 | 8.77752 | 4012 ft | 178 kts | 238° |
| 2026-05-06 22:19 | 50.08170 | 8.76121 | 3537 ft | 176 kts | 242° |
| 2026-05-06 22:19 | 50.07618 | 8.74441 | 3045 ft | 171 kts | 249° |
| 2026-05-06 22:20 | 50.07205 | 8.72768 | 2714 ft | 159 kts | 254° |
| 2026-05-06 22:20 | 50.06886 | 8.71195 | 2436 ft | 148 kts | 256° |
| 2026-05-06 22:20 | 50.06566 | 8.69683 | 2035 ft | 147 kts | 252° |
| 2026-05-06 22:20 | 50.06225 | 8.68236 | 1794 ft | 141 kts | 254° |
| 2026-05-06 22:21 | 50.05929 | 8.66790 | 1505 ft | 139 kts | 256° |
| 2026-05-06 22:21 | 50.05627 | 8.65393 | 1237 ft | 132 kts | 252° |
| 2026-05-06 22:21 | 50.05302 | 8.64074 | 1102 ft | 131 kts | 251° |
| 2026-05-06 22:21 | 50.04978 | 8.62759 | 980 ft | 131 kts | 251° |
| 2026-05-06 22:22 | 50.04678 | 8.61447 | 833 ft | 132 kts | 252° |
| 2026-05-06 22:22 | 50.04361 | 8.60179 | 689 ft | 134 kts | 250° |
| 2026-05-06 22:22 | 50.04137 | 8.59203 | 511 ft | 134 kts | 253° |